Time;durP1;ratioP1;P1;durP2;ratioP2;P2;SDS_P1;SDS_P2;PMS_P1;PMS_P2;Temp;Humidity;BMP_temperature;BMP_pressure;BME280_temperature;BME280_humidity;BME280_pressure;Samples;Min_cycle;Max_cycle;Signal;HPM_P1;HPM_P2
2023/01/20 00:01:41;;;;;;;6.25;2.63;;;1.30;99.90;;;;;;4928888;28;20061;-87
2023/01/20 00:04:12;;;;;;;4.13;2.15;;;1.30;99.90;;;;;;4927191;28;20320;-87
2023/01/20 00:06:39;;;;;;;3.45;2.08;;;1.30;99.90;;;;;;4921293;28;20328;-88
2023/01/20 00:09:10;;;;;;;3.67;1.98;;;1.30;99.90;;;;;;4944825;28;20046;-87
2023/01/20 00:11:43;;;;;;;3.55;1.80;;;1.40;99.90;;;;;;4927685;28;20474;-87
2023/01/20 00:14:11;;;;;;;4.32;1.98;;;1.40;99.90;;;;;;4920620;29;20343;-89
2023/01/20 00:16:45;;;;;;;6.03;2.13;;;1.40;99.90;;;;;;4940361;28;20135;-87
2023/01/20 00:19:13;;;;;;;2.38;1.77;;;1.40;99.90;;;;;;4926794;28;20126;-87
2023/01/20 00:21:41;;;;;;;2.78;2.17;;;1.40;99.90;;;;;;4930897;28;20431;-88
2023/01/20 00:24:09;;;;;;;3.80;2.15;;;1.40;99.90;;;;;;4945014;28;20051;-87
2023/01/20 00:26:37;;;;;;;6.68;3.05;;;1.30;99.90;;;;;;4925964;28;20141;-87
2023/01/20 00:29:04;;;;;;;3.35;1.90;;;1.30;99.90;;;;;;4926999;28;20059;-87
2023/01/20 00:31:34;;;;;;;4.53;2.05;;;1.20;99.90;;;;;;4936311;28;20057;-87
2023/01/20 00:34:02;;;;;;;2.53;1.67;;;1.20;99.90;;;;;;4941373;28;20061;-87
2023/01/20 00:36:32;;;;;;;3.25;1.88;;;1.10;99.90;;;;;;4928781;28;20592;-88
2023/01/20 00:39:01;;;;;;;2.65;1.75;;;1.10;99.90;;;;;;4947215;28;20054;-87
2023/01/20 00:41:29;;;;;;;5.05;1.92;;;1.00;99.90;;;;;;4948548;28;20050;-88
2023/01/20 00:43:59;;;;;;;2.70;1.75;;;1.00;99.90;;;;;;4950493;28;20454;-88
2023/01/20 00:46:29;;;;;;;2.40;1.60;;;1.00;99.90;;;;;;4944733;28;20321;-88
2023/01/20 00:48:57;;;;;;;2.75;1.63;;;0.90;99.90;;;;;;4956236;28;20484;-87
2023/01/20 00:51:28;;;;;;;2.10;1.50;;;0.90;99.90;;;;;;4958790;28;20054;-87
2023/01/20 00:53:59;;;;;;;3.35;1.73;;;0.90;99.90;;;;;;4975025;28;20148;-88
2023/01/20 00:56:32;;;;;;;5.50;1.90;;;0.90;99.90;;;;;;4955090;28;20425;-88
2023/01/20 00:59:00;;;;;;;5.22;2.35;;;0.90;99.90;;;;;;4950567;28;20065;-87
2023/01/20 01:01:28;;;;;;;3.55;1.73;;;0.90;99.90;;;;;;4983041;28;20055;-87
2023/01/20 01:03:55;;;;;;;4.32;1.88;;;0.90;99.90;;;;;;4989564;28;20085;-88
2023/01/20 01:06:23;;;;;;;3.80;2.00;;;0.90;99.90;;;;;;4964479;28;20047;-87
2023/01/20 01:08:50;;;;;;;2.20;1.60;;;0.90;99.90;;;;;;4963610;28;20051;-88
2023/01/20 01:11:17;;;;;;;4.30;1.98;;;0.90;99.90;;;;;;4964870;28;20142;-88
2023/01/20 01:13:45;;;;;;;3.88;1.73;;;0.90;99.90;;;;;;4974649;28;20045;-88
2023/01/20 01:16:14;;;;;;;2.58;1.60;;;0.90;99.90;;;;;;4986365;28;20046;-88
2023/01/20 01:18:41;;;;;;;4.75;2.20;;;0.90;99.90;;;;;;4985731;28;20124;-88
2023/01/20 01:21:09;;;;;;;4.53;2.00;;;0.90;99.90;;;;;;4949590;28;20450;-88
2023/01/20 01:23:37;;;;;;;2.50;1.55;;;1.00;99.90;;;;;;4987554;28;20115;-88
2023/01/20 01:26:04;;;;;;;2.40;1.45;;;1.00;99.90;;;;;;4978936;28;20182;-88
2023/01/20 01:28:31;;;;;;;2.88;1.33;;;1.00;99.90;;;;;;5002439;28;20085;-87
2023/01/20 01:31:01;;;;;;;2.33;1.50;;;1.00;99.90;;;;;;4983148;28;20061;-87
2023/01/20 01:33:31;;;;;;;2.42;1.40;;;1.00;99.90;;;;;;4969002;28;20547;-88
2023/01/20 01:35:59;;;;;;;2.58;1.77;;;1.10;99.90;;;;;;4966903;28;20125;-88
2023/01/20 01:38:27;;;;;;;1.98;1.23;;;1.20;99.90;;;;;;4955755;28;20050;-88
2023/01/20 01:40:54;;;;;;;3.17;1.85;;;1.20;99.90;;;;;;4967565;28;20058;-89
2023/01/20 01:43:29;;;;;;;3.92;1.70;;;1.30;99.90;;;;;;4976903;28;20050;-87
2023/01/20 01:45:56;;;;;;;2.95;1.67;;;1.30;99.90;;;;;;4967704;28;20476;-89
2023/01/20 01:48:27;;;;;;;3.72;1.60;;;1.40;99.90;;;;;;4981826;28;20312;-88
2023/01/20 01:50:57;;;;;;;2.50;1.40;;;1.40;99.90;;;;;;4968339;28;20523;-89
2023/01/20 01:53:25;;;;;;;3.75;1.60;;;1.50;99.90;;;;;;4981070;28;20054;-88
2023/01/20 01:55:59;;;;;;;2.17;1.20;;;1.50;99.90;;;;;;4962657;28;20054;-89
2023/01/20 01:58:29;;;;;;;2.72;1.50;;;1.50;99.90;;;;;;4959312;28;20058;-89
2023/01/20 02:00:55;;;;;;;3.50;1.40;;;1.50;99.90;;;;;;4950827;28;20150;-88
2023/01/20 02:03:22;;;;;;;2.88;1.20;;;1.50;99.90;;;;;;4993928;28;20054;-88
2023/01/20 02:05:50;;;;;;;1.52;1.10;;;1.60;99.90;;;;;;4962933;28;20383;-89
2023/01/20 02:08:17;;;;;;;2.80;1.58;;;1.60;99.90;;;;;;4969061;28;20065;-89
2023/01/20 02:10:44;;;;;;;2.92;1.50;;;1.60;99.90;;;;;;4985160;28;20205;-88
2023/01/20 02:13:11;;;;;;;3.78;1.30;;;1.60;99.90;;;;;;4984055;28;20058;-88
2023/01/20 02:15:47;;;;;;;2.95;1.73;;;1.60;99.90;;;;;;4963116;28;20050;-88
2023/01/20 02:18:28;;;;;;;2.67;1.38;;;1.50;99.90;;;;;;4979023;28;20062;-89
2023/01/20 02:20:58;;;;;;;2.33;1.20;;;1.50;99.90;;;;;;4962204;28;20447;-89
2023/01/20 02:23:56;;;;;;;1.83;1.20;;;1.50;99.90;;;;;;5002775;28;20054;-88
2023/01/20 02:26:48;;;;;;;4.93;1.70;;;1.40;99.90;;;;;;4974005;28;20055;-88
2023/01/20 02:29:24;;;;;;;3.45;1.50;;;1.40;99.90;;;;;;4976548;28;20054;-88
2023/01/20 02:32:09;;;;;;;5.93;1.30;;;1.30;99.90;;;;;;4983496;28;20082;-87
2023/01/20 02:34:42;;;;;;;2.08;1.10;;;1.30;99.90;;;;;;4988622;28;20154;-87
2023/01/20 02:37:09;;;;;;;2.30;1.17;;;1.20;99.90;;;;;;4987370;28;20050;-87
2023/01/20 02:39:44;;;;;;;2.13;1.23;;;1.20;99.90;;;;;;4987896;28;20050;-88
2023/01/20 02:42:21;;;;;;;2.60;1.48;;;1.10;99.90;;;;;;4980505;28;20099;-88
2023/01/20 02:45:01;;;;;;;2.10;1.30;;;1.10;99.90;;;;;;4972274;28;20042;-88
2023/01/20 02:47:28;;;;;;;2.47;1.48;;;1.10;99.90;;;;;;4981524;28;20054;-88
2023/01/20 02:50:09;;;;;;;2.20;1.30;;;1.00;99.90;;;;;;4985941;28;20482;-87
2023/01/20 02:52:38;;;;;;;2.00;1.30;;;1.00;99.90;;;;;;4957155;28;20054;-90
2023/01/20 02:55:07;;;;;;;5.60;1.83;;;1.00;99.90;;;;;;4985160;28;20062;-88
2023/01/20 02:57:57;;;;;;;3.72;1.38;;;0.90;99.90;;;;;;4969167;28;20137;-87
2023/01/20 03:00:31;;;;;;;2.00;1.23;;;0.90;99.90;;;;;;4952371;28;20467;-87
2023/01/20 03:02:58;;;;;;;2.63;1.30;;;0.90;99.90;;;;;;4984610;28;20150;-87
2023/01/20 03:05:28;;;;;;;2.85;1.45;;;0.80;99.90;;;;;;4950745;28;20057;-88
2023/01/20 03:07:55;;;;;;;2.80;1.48;;;0.90;99.90;;;;;;4964085;28;20058;-88
2023/01/20 03:10:22;;;;;;;2.55;1.58;;;0.80;99.90;;;;;;4985457;28;20056;-87
2023/01/20 03:13:09;;;;;;;1.52;1.10;;;0.80;99.90;;;;;;4968673;28;20495;-88
2023/01/20 03:15:48;;;;;;;3.45;1.95;;;0.80;99.90;;;;;;4967266;28;20414;-87
2023/01/20 03:18:15;;;;;;;4.50;1.25;;;0.80;99.90;;;;;;4951980;28;20050;-87
2023/01/20 03:20:42;;;;;;;4.75;1.80;;;0.90;99.90;;;;;;4980900;28;20074;-87
2023/01/20 03:23:10;;;;;;;2.47;1.35;;;0.90;99.90;;;;;;4985356;28;20050;-88
2023/01/20 03:25:38;;;;;;;2.20;1.30;;;0.90;99.90;;;;;;4963106;28;20061;-87
2023/01/20 03:28:04;;;;;;;2.97;1.33;;;1.00;99.90;;;;;;4984674;28;20050;-88
2023/01/20 03:30:31;;;;;;;2.67;1.10;;;1.00;99.90;;;;;;4986504;28;20486;-89
2023/01/20 03:32:58;;;;;;;1.95;1.10;;;1.00;99.90;;;;;;4984753;28;20119;-87
2023/01/20 03:35:25;;;;;;;2.53;1.20;;;1.00;99.90;;;;;;4981067;28;20047;-88
2023/01/20 03:37:52;;;;;;;3.22;1.13;;;1.10;99.90;;;;;;4968986;28;20153;-88
2023/01/20 03:40:19;;;;;;;3.45;1.08;;;1.10;99.90;;;;;;4960452;28;20319;-87
2023/01/20 03:42:59;;;;;;;2.45;1.13;;;1.10;99.90;;;;;;4991535;28;20500;-88
2023/01/20 03:45:30;;;;;;;1.20;1.10;;;1.10;99.90;;;;;;4981681;28;20074;-88
2023/01/20 03:48:03;;;;;;;1.60;1.00;;;1.10;99.90;;;;;;4974539;28;20058;-88
2023/01/20 03:50:30;;;;;;;2.38;1.02;;;1.00;99.90;;;;;;4934633;28;20046;-88
2023/01/20 03:53:21;;;;;;;3.17;0.98;;;1.10;99.90;;;;;;4950273;28;20704;-88
2023/01/20 03:55:54;;;;;;;2.13;0.93;;;1.10;99.90;;;;;;4965750;28;20314;-88
2023/01/20 03:58:24;;;;;;;2.10;1.15;;;1.00;99.90;;;;;;4933563;28;20571;-88
2023/01/20 04:00:51;;;;;;;2.63;1.02;;;1.00;99.90;;;;;;4949062;28;20062;-88
2023/01/20 04:03:23;;;;;;;5.03;1.30;;;1.00;99.90;;;;;;4947786;28;20129;-88
2023/01/20 04:05:49;;;;;;;1.60;1.00;;;1.00;99.90;;;;;;4943240;28;20141;-88
2023/01/20 04:08:17;;;;;;;2.63;1.08;;;1.00;99.90;;;;;;4931597;28;20090;-88
2023/01/20 04:10:45;;;;;;;1.27;0.85;;;1.00;99.90;;;;;;4954705;28;20621;-88
2023/01/20 04:13:11;;;;;;;1.38;0.90;;;1.00;99.90;;;;;;4932657;28;20477;-87
2023/01/20 04:15:45;;;;;;;1.17;0.80;;;1.00;99.90;;;;;;4951054;28;20118;-88
2023/01/20 04:18:15;;;;;;;;;;;1.00;99.90;;;;;;4941006;28;20047;-88
2023/01/20 04:20:43;;;;;;;1.30;0.60;;;1.00;99.90;;;;;;4966509;28;19921;-88
2023/01/20 04:23:16;;;;;;;1.35;0.70;;;0.90;99.90;;;;;;4949934;28;20055;-88
2023/01/20 04:25:43;;;;;;;1.33;0.90;;;1.00;99.90;;;;;;4950988;28;20146;-87
2023/01/20 04:28:10;;;;;;;1.67;0.75;;;1.00;99.90;;;;;;4948767;28;20050;-88
2023/01/20 04:30:37;;;;;;;1.23;0.85;;;0.90;99.90;;;;;;4937815;28;20375;-88
2023/01/20 04:33:04;;;;;;;1.67;0.82;;;0.90;99.90;;;;;;4970141;28;20141;-88
2023/01/20 04:35:30;;;;;;;1.40;0.95;;;0.90;99.90;;;;;;4950115;28;20567;-88
2023/01/20 04:37:57;;;;;;;2.13;0.90;;;0.90;99.90;;;;;;4950373;28;20110;-87
2023/01/20 04:40:24;;;;;;;1.70;1.05;;;0.90;99.90;;;;;;4953913;28;20077;-88
2023/01/20 04:42:51;;;;;;;1.08;0.80;;;0.90;99.90;;;;;;4952781;28;20082;-88
2023/01/20 04:45:18;;;;;;;1.40;0.95;;;0.90;99.90;;;;;;4935873;28;20554;-87
2023/01/20 04:47:44;;;;;;;3.90;0.80;;;0.80;99.90;;;;;;4942681;28;20063;-88
2023/01/20 04:50:12;;;;;;;3.30;1.10;;;0.90;99.90;;;;;;4956331;28;20196;-88
2023/01/20 04:52:39;;;;;;;2.47;0.80;;;0.90;99.90;;;;;;4972263;28;20054;-88
2023/01/20 04:55:06;;;;;;;1.75;0.73;;;0.90;99.90;;;;;;4970714;28;20225;-87
2023/01/20 04:57:33;;;;;;;2.53;0.88;;;0.80;99.90;;;;;;4988743;28;20054;-88
2023/01/20 04:59:59;;;;;;;1.80;0.75;;;0.90;99.90;;;;;;4988772;28;20172;-89
2023/01/20 05:02:26;;;;;;;1.48;0.70;;;0.80;99.90;;;;;;4987817;28;20428;-88
2023/01/20 05:04:53;;;;;;;0.73;0.60;;;0.80;99.90;;;;;;4988697;28;20101;-88
2023/01/20 05:07:20;;;;;;;1.75;0.80;;;0.80;99.90;;;;;;4983539;28;20074;-88
2023/01/20 05:09:47;;;;;;;1.48;0.80;;;0.70;99.90;;;;;;4971427;28;20048;-88
2023/01/20 05:12:14;;;;;;;1.55;0.80;;;0.70;99.90;;;;;;4987980;28;20065;-88
2023/01/20 05:14:41;;;;;;;1.20;0.80;;;0.60;99.90;;;;;;4987820;28;20090;-87
2023/01/20 05:17:07;;;;;;;1.92;1.00;;;0.60;99.90;;;;;;4987697;28;20338;-88
2023/01/20 05:19:34;;;;;;;1.67;1.02;;;0.60;99.90;;;;;;4985010;28;20058;-88
2023/01/20 05:22:01;;;;;;;1.00;0.65;;;0.60;99.90;;;;;;4966906;28;20061;-88
2023/01/20 05:24:29;;;;;;;2.42;0.80;;;0.60;99.90;;;;;;4988036;28;20151;-88
2023/01/20 05:26:59;;;;;;;1.85;0.93;;;0.60;99.90;;;;;;4964045;28;20078;-89
2023/01/20 05:29:27;;;;;;;1.35;0.80;;;0.60;99.90;;;;;;4955848;28;20576;-88
2023/01/20 05:31:54;;;;;;;0.77;0.60;;;0.60;99.90;;;;;;4971071;28;20145;-88
2023/01/20 05:34:20;;;;;;;0.73;0.70;;;0.60;99.90;;;;;;4985775;28;20060;-88
2023/01/20 05:36:52;;;;;;;0.63;0.50;;;0.50;99.90;;;;;;4987941;28;20091;-87
2023/01/20 05:39:19;;;;;;;2.45;0.63;;;0.50;99.90;;;;;;4971692;28;20137;-89
2023/01/20 05:41:46;;;;;;;1.23;0.80;;;0.50;99.90;;;;;;4957668;28;20540;-88
2023/01/20 05:44:14;;;;;;;1.85;0.82;;;0.50;99.90;;;;;;4982998;28;20461;-89
2023/01/20 05:46:40;;;;;;;1.85;1.00;;;0.50;99.90;;;;;;4954361;28;20525;-87
2023/01/20 05:49:10;;;;;;;1.48;0.80;;;0.60;99.90;;;;;;4968466;28;20165;-88
2023/01/20 05:51:37;;;;;;;1.73;0.70;;;0.60;99.90;;;;;;4953801;28;20082;-88
2023/01/20 05:54:03;;;;;;;2.13;0.90;;;0.60;99.90;;;;;;4967697;28;20061;-88
2023/01/20 05:56:30;;;;;;;1.15;0.57;;;0.60;99.90;;;;;;4951414;28;20216;-88
2023/01/20 05:58:57;;;;;;;1.85;0.93;;;0.60;99.90;;;;;;4951361;28;20146;-87
2023/01/20 06:01:24;;;;;;;1.98;0.77;;;0.60;99.90;;;;;;4968772;28;20125;-88
2023/01/20 06:03:51;;;;;;;3.22;1.00;;;0.60;99.90;;;;;;4960786;28;20617;-88
2023/01/20 06:06:17;;;;;;;2.75;1.17;;;0.50;99.90;;;;;;4966560;28;20054;-88
2023/01/20 06:08:44;;;;;;;1.10;0.63;;;0.60;99.90;;;;;;4949186;28;20500;-88
2023/01/20 06:11:13;;;;;;;4.15;0.98;;;0.60;99.90;;;;;;4966118;28;20195;-88
2023/01/20 06:13:40;;;;;;;2.90;1.08;;;0.50;99.90;;;;;;4948983;28;20058;-88
2023/01/20 06:16:07;;;;;;;2.20;1.23;;;0.50;99.90;;;;;;4964003;28;20059;-88
2023/01/20 06:18:34;;;;;;;4.05;1.35;;;0.50;99.90;;;;;;4964950;28;20066;-88
2023/01/20 06:21:00;;;;;;;1.83;1.00;;;0.50;99.90;;;;;;4964271;28;20053;-88
2023/01/20 06:23:27;;;;;;;1.92;1.05;;;0.50;99.90;;;;;;4953442;28;20050;-88
2023/01/20 06:26:01;;;;;;;1.38;0.80;;;0.40;99.90;;;;;;4962542;28;20074;-88
2023/01/20 06:28:28;;;;;;;1.77;0.98;;;0.40;99.90;;;;;;4963053;28;20141;-87
2023/01/20 06:30:59;;;;;;;1.48;0.80;;;0.40;99.90;;;;;;4943699;28;20065;-88
2023/01/20 06:33:26;;;;;;;1.33;0.82;;;0.40;99.90;;;;;;4948640;28;20142;-88
2023/01/20 06:35:54;;;;;;;1.65;1.10;;;0.50;99.90;;;;;;4929111;28;20072;-88
2023/01/20 06:38:22;;;;;;;1.95;0.73;;;0.40;99.90;;;;;;4962059;28;20089;-88
2023/01/20 06:40:49;;;;;;;3.45;0.90;;;0.50;99.90;;;;;;4947875;28;20475;-86
2023/01/20 06:43:16;;;;;;;3.28;0.93;;;0.40;99.90;;;;;;4964988;28;20082;-87
2023/01/20 06:45:43;;;;;;;1.77;1.10;;;0.50;99.90;;;;;;4943442;28;20145;-88
2023/01/20 06:48:09;;;;;;;2.08;0.85;;;0.50;99.90;;;;;;4965909;28;20065;-87
2023/01/20 06:50:36;;;;;;;0.95;0.70;;;0.50;99.90;;;;;;4961087;28;20043;-87
2023/01/20 06:53:03;;;;;;;1.15;0.90;;;0.50;99.90;;;;;;4966736;28;20057;-88
2023/01/20 06:55:29;;;;;;;2.35;1.20;;;0.50;99.90;;;;;;4948910;28;20061;-87
2023/01/20 06:57:56;;;;;;;1.13;1.00;;;0.50;99.90;;;;;;4947038;28;20189;-87
2023/01/20 07:00:23;;;;;;;1.17;0.60;;;0.50;99.90;;;;;;4962791;28;20130;-86
2023/01/20 07:02:50;;;;;;;1.40;0.80;;;0.40;99.90;;;;;;4941628;28;20121;-86
2023/01/20 07:05:17;;;;;;;1.70;0.90;;;0.50;99.90;;;;;;4953133;28;20114;-87
2023/01/20 07:07:45;;;;;;;2.05;0.90;;;0.40;99.90;;;;;;4940324;28;20297;-87
2023/01/20 07:10:11;;;;;;;2.22;1.00;;;0.50;99.90;;;;;;4943933;28;21067;-88
2023/01/20 07:12:38;;;;;;;2.08;0.90;;;0.40;99.90;;;;;;4940108;28;20302;-87
2023/01/20 07:15:05;;;;;;;1.23;0.77;;;0.40;99.90;;;;;;4928439;28;20570;-88
2023/01/20 07:17:32;;;;;;;1.48;0.75;;;0.40;99.90;;;;;;4959407;28;20067;-85
2023/01/20 07:19:59;;;;;;;1.55;0.77;;;0.40;99.90;;;;;;4942022;28;20051;-86
2023/01/20 07:22:26;;;;;;;1.10;0.77;;;0.40;99.90;;;;;;4941850;28;20456;-87
2023/01/20 07:24:53;;;;;;;3.35;1.20;;;0.50;99.90;;;;;;4915746;28;20106;-88
2023/01/20 07:27:19;;;;;;;4.70;1.05;;;0.50;99.90;;;;;;4954241;28;20050;-88
2023/01/20 07:29:46;;;;;;;2.30;1.08;;;0.50;99.90;;;;;;4958898;28;20053;-87
2023/01/20 07:32:14;;;;;;;1.63;1.15;;;0.50;99.90;;;;;;4958567;28;20046;-87
2023/01/20 07:34:40;;;;;;;2.47;0.80;;;0.50;99.90;;;;;;4959565;28;20054;-86
2023/01/20 07:37:07;;;;;;;2.60;1.13;;;0.50;99.90;;;;;;4959124;28;20410;-87
2023/01/20 07:39:35;;;;;;;4.25;0.80;;;0.50;99.90;;;;;;4958780;28;20058;-84
2023/01/20 07:42:02;;;;;;;1.33;0.80;;;0.50;99.90;;;;;;4944150;28;20058;-86
2023/01/20 07:44:29;;;;;;;1.13;0.85;;;0.50;99.90;;;;;;4957083;28;20055;-88
2023/01/20 07:47:10;;;;;;;3.63;0.90;;;0.50;99.90;;;;;;4936969;28;20354;-87
2023/01/20 07:49:54;;;;;;;0.95;0.75;;;0.50;99.90;;;;;;4965079;28;20125;-86
2023/01/20 07:52:21;;;;;;;2.70;0.70;;;0.60;99.90;;;;;;4946583;28;20438;-85
2023/01/20 07:54:48;;;;;;;1.45;0.60;;;0.60;99.90;;;;;;4946450;28;20054;-86
2023/01/20 07:57:15;;;;;;;2.00;0.77;;;0.60;99.90;;;;;;4962677;28;20160;-86
2023/01/20 07:59:41;;;;;;;1.55;1.20;;;0.60;99.90;;;;;;4962073;28;20060;-87
2023/01/20 08:02:08;;;;;;;3.67;0.90;;;0.60;99.90;;;;;;4962699;28;20418;-86
2023/01/20 08:04:35;;;;;;;1.63;1.50;;;0.60;99.90;;;;;;4963040;28;20438;-82
2023/01/20 08:07:02;;;;;;;0.50;0.50;;;0.60;99.90;;;;;;4980142;28;20112;-85
2023/01/20 08:09:29;;;;;;;1.10;0.82;;;0.60;99.90;;;;;;4956745;28;20062;-85
2023/01/20 08:11:56;;;;;;;0.93;0.60;;;0.70;99.90;;;;;;4970074;28;20133;-85
2023/01/20 08:14:23;;;;;;;1.60;0.77;;;0.70;99.90;;;;;;4956740;28;20884;-85
2023/01/20 08:16:50;;;;;;;1.08;0.60;;;0.70;99.90;;;;;;4958394;28;20061;-86
2023/01/20 08:19:17;;;;;;;1.90;0.88;;;0.70;99.90;;;;;;4960930;28;20050;-87
2023/01/20 08:21:44;;;;;;;1.13;0.75;;;0.80;99.90;;;;;;4946079;28;20082;-86
2023/01/20 08:24:10;;;;;;;1.35;0.95;;;0.80;99.90;;;;;;4962755;28;20437;-85
2023/01/20 08:26:38;;;;;;;1.88;0.90;;;0.90;99.90;;;;;;4959369;28;20456;-86
2023/01/20 08:29:06;;;;;;;1.08;0.80;;;0.90;99.90;;;;;;4927181;28;20069;-87
2023/01/20 08:31:34;;;;;;;0.73;0.68;;;0.90;99.90;;;;;;4943728;28;20220;-88
2023/01/20 08:34:01;;;;;;;2.38;1.02;;;0.90;99.90;;;;;;4962759;28;20051;-84
2023/01/20 08:36:30;;;;;;;1.48;0.80;;;1.00;99.90;;;;;;4944481;28;20417;-87
2023/01/20 08:38:58;;;;;;;1.83;0.80;;;1.00;99.90;;;;;;4946878;28;20061;-85
2023/01/20 08:41:33;;;;;;;4.63;1.00;;;1.00;99.90;;;;;;4962574;28;20110;-87
2023/01/20 08:44:01;;;;;;;2.13;0.80;;;1.00;99.90;;;;;;4949128;28;20129;-87
2023/01/20 08:46:28;;;;;;;0.90;0.77;;;1.00;99.90;;;;;;4943012;28;20207;-87
2023/01/20 08:48:56;;;;;;;1.10;0.73;;;1.00;99.90;;;;;;4962001;28;20063;-86
2023/01/20 08:51:25;;;;;;;1.13;0.60;;;1.10;99.90;;;;;;4938981;28;20137;-87
2023/01/20 08:53:53;;;;;;;1.63;0.82;;;1.10;99.90;;;;;;4930009;28;20067;-87
2023/01/20 08:56:20;;;;;;;1.38;0.98;;;1.10;99.90;;;;;;4956929;28;20093;-85
2023/01/20 08:58:47;;;;;;;2.30;1.00;;;1.10;99.90;;;;;;4939345;28;20483;-87
2023/01/20 09:01:19;;;;;;;1.35;1.10;;;1.20;99.90;;;;;;4935898;28;20078;-87
2023/01/20 09:03:47;;;;;;;1.52;1.05;;;1.20;99.90;;;;;;4951723;28;20109;-87
2023/01/20 09:06:36;;;;;;;2.25;1.10;;;1.30;99.90;;;;;;4914997;28;20062;-87
2023/01/20 09:09:04;;;;;;;1.52;1.08;;;1.30;99.90;;;;;;4934295;28;20051;-87
2023/01/20 09:11:31;;;;;;;3.70;1.52;;;1.30;99.90;;;;;;4957039;28;20051;-87
2023/01/20 09:13:58;;;;;;;1.02;0.82;;;1.40;99.90;;;;;;4960850;28;20109;-85
2023/01/20 09:16:25;;;;;;;2.20;1.30;;;1.40;99.90;;;;;;4940974;28;20101;-86
2023/01/20 09:18:52;;;;;;;4.78;1.17;;;1.50;99.90;;;;;;4939281;28;20477;-87
2023/01/20 09:21:21;;;;;;;1.52;1.10;;;1.50;99.90;;;;;;4960454;28;20050;-86
2023/01/20 09:23:48;;;;;;;2.33;1.10;;;1.60;99.90;;;;;;4944129;28;20069;-86
2023/01/20 09:26:15;;;;;;;2.60;1.20;;;1.70;99.90;;;;;;4958402;28;20118;-86
2023/01/20 09:29:07;;;;;;;2.03;1.23;;;1.70;99.90;;;;;;4931809;28;20113;-87
2023/01/20 09:31:37;;;;;;;1.15;0.98;;;1.80;99.90;;;;;;4930398;28;20058;-87
2023/01/20 09:34:04;;;;;;;2.05;1.10;;;1.80;99.90;;;;;;4951546;28;20054;-86
2023/01/20 09:36:31;;;;;;;6.13;1.38;;;1.90;99.90;;;;;;4920944;28;20553;-87
2023/01/20 09:44:52;;;;;;;1.58;1.10;;;2.00;99.90;;;;;;4939852;28;20058;-85
2023/01/20 09:47:27;;;;;;;2.28;1.50;;;2.10;99.90;;;;;;4937952;28;20051;-86
2023/01/20 09:53:19;;;;;;;4.20;1.80;;;2.20;99.90;;;;;;4964047;28;20141;-89
2023/01/20 09:55:48;;;;;;;3.33;1.52;;;2.30;99.90;;;;;;4961085;28;20058;-86
2023/01/20 09:58:30;;;;;;;3.53;1.42;;;2.40;99.90;;;;;;4941935;28;20307;-86
2023/01/20 10:01:09;;;;;;;4.60;1.33;;;2.40;99.90;;;;;;4961229;28;20281;-85
2023/01/20 10:03:41;;;;;;;3.67;1.60;;;2.50;99.90;;;;;;4959998;28;20062;-86
2023/01/20 10:06:14;;;;;;;5.38;1.88;;;2.60;99.90;;;;;;4926113;28;20057;-86
2023/01/20 10:08:49;;;;;;;2.22;1.40;;;2.60;99.90;;;;;;4908514;28;20127;-81
2023/01/20 10:11:34;;;;;;;2.92;1.60;;;2.70;99.90;;;;;;4939124;28;20051;-81
2023/01/20 10:14:01;;;;;;;3.33;1.25;;;2.80;99.90;;;;;;4937025;28;20058;-80
2023/01/20 10:16:47;;;;;;;2.33;1.40;;;2.80;99.90;;;;;;4953209;28;20080;-81
2023/01/20 10:19:28;;;;;;;5.28;1.65;;;2.90;99.90;;;;;;4950324;28;20078;-81
2023/01/20 10:22:12;;;;;;;3.65;1.67;;;3.00;99.90;;;;;;4953162;28;20067;-81
2023/01/20 10:24:58;;;;;;;5.18;1.88;;;3.00;99.90;;;;;;4923067;28;20690;-81
2023/01/20 10:27:26;;;;;;;3.22;1.58;;;3.10;99.90;;;;;;4954924;28;20069;-81
2023/01/20 10:29:57;;;;;;;4.30;1.63;;;3.10;99.90;;;;;;4935772;28;20562;-81
2023/01/20 10:32:38;;;;;;;3.35;2.08;;;3.20;99.90;;;;;;4954671;28;20050;-81
2023/01/20 10:35:17;;;;;;;3.55;2.10;;;3.30;99.90;;;;;;4925026;28;20484;-81
2023/01/20 10:37:44;;;;;;;2.40;1.63;;;3.30;99.90;;;;;;4937364;28;20043;-81
2023/01/20 10:40:35;;;;;;;3.75;1.70;;;3.40;99.90;;;;;;4937152;28;20490;-81
2023/01/20 10:43:15;;;;;;;2.28;1.30;;;3.40;99.90;;;;;;4959645;28;20062;-80
2023/01/20 10:45:57;;;;;;;3.97;1.80;;;3.60;99.90;;;;;;4923284;28;20400;-81
2023/01/20 10:48:46;;;;;;;3.75;1.75;;;3.60;99.90;;;;;;4951549;28;20333;-79
2023/01/20 10:51:38;;;;;;;2.55;1.60;;;3.70;99.90;;;;;;4977769;28;20428;-79
2023/01/20 10:54:16;;;;;;;3.85;2.15;;;3.80;99.90;;;;;;4976428;28;20050;-81
2023/01/20 10:56:45;;;;;;;5.22;2.03;;;3.90;99.90;;;;;;4977282;28;20718;-80
2023/01/20 10:59:14;;;;;;;4.85;2.58;;;4.00;99.90;;;;;;4972844;28;20054;-80
2023/01/20 11:01:41;;;;;;;3.33;1.80;;;4.10;99.90;;;;;;4953835;28;20050;-81
2023/01/20 11:04:17;;;;;;;2.90;2.13;;;4.20;99.90;;;;;;4958712;28;20046;-81
2023/01/20 11:06:47;;;;;;;2.83;1.65;;;4.30;99.90;;;;;;4942177;28;20507;-81
2023/01/20 11:09:38;;;;;;;4.65;1.88;;;4.30;99.90;;;;;;4953769;28;20046;-80
2023/01/20 11:12:16;;;;;;;5.43;2.15;;;4.40;99.90;;;;;;4977963;28;20133;-81
2023/01/20 11:14:45;;;;;;;5.07;2.50;;;4.40;99.90;;;;;;4963391;28;20057;-81
2023/01/20 11:17:16;;;;;;;6.28;2.42;;;4.40;99.90;;;;;;4973603;28;20050;-81
2023/01/20 11:19:46;;;;;;;4.80;2.45;;;4.50;99.90;;;;;;4961622;28;20129;-80
2023/01/20 11:22:13;;;;;;;5.95;2.47;;;4.50;99.90;;;;;;4970631;28;20057;-93
2023/01/20 11:24:43;;;;;;;4.63;2.05;;;4.60;99.90;;;;;;4980490;28;20069;-86
2023/01/20 11:27:15;;;;;;;2.85;1.58;;;4.60;99.90;;;;;;4946628;28;20129;-83
2023/01/20 11:29:50;;;;;;;5.20;2.08;;;4.70;99.90;;;;;;4962867;28;20077;-85
2023/01/20 11:32:33;;;;;;;2.53;1.70;;;4.80;99.90;;;;;;4953637;28;20137;-83
2023/01/20 11:35:01;;;;;;;3.05;1.58;;;4.90;99.90;;;;;;4979672;28;20088;-83
2023/01/20 11:37:38;;;;;;;3.60;2.00;;;5.00;99.90;;;;;;4973057;28;20243;-83
2023/01/20 11:40:22;;;;;;;2.65;2.15;;;5.00;99.90;;;;;;4976644;28;20086;-83
2023/01/20 11:42:50;;;;;;;3.83;1.95;;;5.00;99.90;;;;;;4965647;28;20220;-82
2023/01/20 11:45:29;;;;;;;5.05;2.05;;;5.00;99.90;;;;;;4945367;28;20137;-85
2023/01/20 11:48:14;;;;;;;3.75;1.70;;;5.00;99.90;;;;;;4963790;28;20125;-86
2023/01/20 11:50:53;;;;;;;4.88;2.22;;;5.10;99.90;;;;;;5004600;28;20355;-83
2023/01/20 11:53:23;;;;;;;3.30;1.75;;;5.10;99.90;;;;;;4967561;28;20077;-84
2023/01/20 11:55:52;;;;;;;3.72;1.88;;;5.20;99.90;;;;;;4968530;28;20332;-83
2023/01/20 11:58:23;;;;;;;3.90;1.98;;;5.20;99.90;;;;;;4955394;28;20051;-84
2023/01/20 12:00:58;;;;;;;3.97;1.77;;;5.20;99.90;;;;;;4961396;28;20833;-85
2023/01/20 12:04:05;;;;;;;5.80;1.90;;;5.30;99.90;;;;;;4998914;28;20093;-84
2023/01/20 12:06:34;;;;;;;3.80;1.77;;;5.40;99.90;;;;;;4972559;28;20142;-88
2023/01/20 12:09:14;;;;;;;4.72;2.28;;;5.50;99.90;;;;;;4980066;28;20149;-89
2023/01/20 12:12:00;;;;;;;2.13;1.45;;;5.60;99.90;;;;;;4980664;28;20046;-90
2023/01/20 12:14:40;;;;;;;4.22;1.67;;;5.70;99.90;;;;;;4985768;28;20065;-90
2023/01/20 12:17:21;;;;;;;2.38;1.40;;;5.80;99.90;;;;;;4962267;28;20062;-91
2023/01/20 12:20:09;;;;;;;3.55;1.58;;;6.00;99.90;;;;;;4945102;28;20042;-87
2023/01/20 12:22:54;;;;;;;3.38;1.80;;;6.20;99.90;;;;;;4982362;28;20085;-87
2023/01/20 12:25:23;;;;;;;4.03;1.63;;;6.40;99.90;;;;;;4982037;28;20372;-89
2023/01/20 12:28:03;;;;;;;3.80;1.70;;;6.70;99.90;;;;;;4972988;28;20047;-90
2023/01/20 12:30:40;;;;;;;3.28;1.52;;;6.80;99.90;;;;;;4961581;28;20245;-90
2023/01/20 12:33:34;;;;;;;2.45;1.52;;;6.90;99.90;;;;;;4965803;28;20050;-90
2023/01/20 12:36:07;;;;;;;;;;;7.20;99.90;;;;;;4976045;28;20078;-91
2023/01/20 12:38:56;;;;;;;3.83;1.73;;;7.10;99.90;;;;;;4980619;28;19952;-91
2023/01/20 12:41:39;;;;;;;2.15;1.20;;;7.30;99.90;;;;;;4951345;28;20046;-91
2023/01/20 12:44:28;;;;;;;3.43;1.43;;;7.50;99.90;;;;;;4959971;28;20062;-81
2023/01/20 12:47:16;;;;;;;3.53;1.83;;;7.50;99.90;;;;;;4975384;28;20072;-81
2023/01/20 12:50:31;;;;;;;3.70;1.48;;;7.40;99.90;;;;;;4943816;28;20109;-81
2023/01/20 12:53:04;;;;;;;4.10;1.80;;;7.60;99.90;;;;;;4951912;28;20077;-81
2023/01/20 12:55:51;;;;;;;2.38;1.95;;;7.70;99.90;;;;;;4947270;28;20169;-81
2023/01/20 12:58:27;;;;;;;3.05;1.50;;;7.80;99.90;;;;;;4964933;28;20055;-81
2023/01/20 13:01:12;;;;;;;5.78;1.95;;;7.90;99.90;;;;;;4933513;28;20182;-81
2023/01/20 13:03:50;;;;;;;4.15;1.77;;;7.80;99.90;;;;;;4963131;28;20394;-81
2023/01/20 13:06:44;;;;;;;3.95;1.42;;;7.90;99.90;;;;;;4966996;28;20074;-81
2023/01/20 13:09:42;;;;;;;3.50;1.65;;;8.00;99.90;;;;;;4965223;28;20097;-81
2023/01/20 13:12:32;;;;;;;5.00;2.30;;;8.00;99.90;;;;;;4965333;28;20133;-81
2023/01/20 13:15:12;;;;;;;4.07;2.15;;;8.00;99.90;;;;;;4964120;28;20159;-81
2023/01/20 13:18:07;;;;;;;3.58;1.80;;;7.90;99.90;;;;;;4942672;28;20058;-81
2023/01/20 13:20:34;;;;;;;3.90;1.83;;;8.00;99.90;;;;;;4965466;28;20142;-80
2023/01/20 13:23:03;;;;;;;3.03;1.85;;;8.20;99.90;;;;;;4965094;28;20043;-80
2023/01/20 13:25:31;;;;;;;4.65;2.15;;;8.40;99.90;;;;;;4945046;28;20065;-80
2023/01/20 13:27:58;;;;;;;2.38;1.67;;;8.50;99.90;;;;;;4945323;28;20141;-82
2023/01/20 13:30:37;;;;;;;4.13;1.88;;;8.60;99.90;;;;;;4933246;28;20446;-82